N5FTL Weather Reports


time (UTC)temp
F
wind
direction
speed
knots
gust
knots
rain 1hr
in
rain 24hr
in
rain mn
in
humidity
%
barometer
mb
20260505184136 89 288 0.9 10.4 0.00 0.00 0.00 26 1000.9
20260505183635 88 257 5.2 10.4 0.00 0.00 0.00 27 1001.1
20260505183135 88 238 6.1 8.7 0.00 0.00 0.00 26 1001.2
20260505182635 88 296 5.2 10.4 0.00 0.00 0.00 26 1001.3
20260505182135 87 283 5.2 10.4 0.00 0.00 0.00 27 1001.3
20260505181635 87 258 4.3 8.7 0.00 0.00 0.00 29 1001.4
20260505181135 87 240 0.9 8.7 0.00 0.00 0.00 28 1001.4
20260505180635 87 281 0.0 7.8 0.00 0.00 0.00 31 1001.3
20260505180136 87 262 1.7 7.8 0.00 0.00 0.00 29 1001.3
20260505175635 86 245 0.0 2.6 0.00 0.00 0.00 30 1001.3
20260505175135 86 284 0.0 8.7 0.00 0.00 0.00 30 1001.5
20260505174635 86 257 4.3 8.7 0.00 0.00 0.00 30 1001.4
20260505174135 86 261 5.2 7.8 0.00 0.00 0.00 31 1001.5
20260505173635 85 280 0.0 8.7 0.00 0.00 0.00 33 1001.5
20260505173135 85 287 2.6 10.4 0.00 0.00 0.00 34 1001.5
20260505172635 85 266 2.6 10.4 0.00 0.00 0.00 36 1001.5
20260505172135 84 236 3.5 10.4 0.00 0.00 0.00 38 1001.5
20260505171635 84 242 3.5 10.4 0.00 0.00 0.00 39 1001.5
20260505171135 83 257 6.1 10.4 0.00 0.00 0.00 39 1001.6
20260505170635 83 256 0.0 10.4 0.00 0.00 0.00 40 1001.6
20260505170135 83 267 0.9 10.4 0.00 0.00 0.00 40 1001.8
20260505165635 83 274 2.6 8.7 0.00 0.00 0.00 41 1001.8
20260505165135 82 250 2.6 10.4 0.00 0.00 0.00 42 1001.8
20260505164635 82 248 5.2 10.4 0.00 0.00 0.00 41 1001.8
20260505164135 82 246 5.2 8.7 0.00 0.00 0.00 43 1001.8
20260505163635 81 241 5.2 8.7 0.00 0.00 0.00 46 1001.8
20260505163135 80 265 1.7 8.7 0.00 0.00 0.00 50 1001.8
20260505162635 80 257 2.6 10.4 0.00 0.00 0.00 50 1001.8
20260505162135 80 250 5.2 10.4 0.00 0.00 0.00 51 1001.8
20260505161635 79 250 3.5 10.4 0.00 0.00 0.00 53 1001.8
20260505161135 79 247 4.3 8.7 0.00 0.00 0.00 54 1002.0
20260505160635 78 268 0.0 6.1 0.00 0.00 0.00 56 1002.0
20260505160135 78 256 0.0 10.4 0.00 0.00 0.00 58 1002.0
20260505153135 75 238 0.0 8.7 0.00 0.00 0.00 69 1002.0
20260505152635 75 225 2.6 10.4 0.00 0.00 0.00 69 1001.8
20260505151635 74 240 2.6 7.8 0.00 0.00 0.00 71 1002.0
20260505151135 73 244 2.6 8.7 0.00 0.00 0.00 72 1002.0
20260505150635 73 238 4.3 8.7 0.00 0.00 0.00 73 1001.9
20260505150134 73 225 0.0 0.0 0.00 0.00 0.00 75 1001.9
20260505140635 69 199 0.0 0.9 0.00 0.00 0.00 82 1001.7
20260505140134 69 202 0.0 0.9 0.00 0.00 0.00 82 1001.6
20260505130134 67 205 0.0 0.0 0.00 0.00 0.00 85 1001.4
20260505124634 67 203 0.0 2.6 0.00 0.00 0.00 85 1001.2
20260505124135 66 207 0.0 2.6 0.00 0.00 0.00 85 1001.2
20260505123634 66 219 0.0 0.0 0.00 0.00 0.00 85 1001.2
20260505123134 66 219 0.0 0.0 0.00 0.00 0.00 85 1001.2
20260505122634 66 219 0.0 0.0 0.00 0.00 0.00 84 1001.1
20260505122135 66 219 0.0 0.0 0.00 0.00 0.00 84 1001.0
20260505121135 66 219 0.0 0.0 0.00 0.00 0.00 84 1000.8
20260505120634 67 219 0.0 0.0 0.00 0.00 0.00 84 1000.7
20260505115634 67 219 0.0 0.0 0.00 0.00 0.00 84 1000.9
20260505115134 67 218 0.0 0.0 0.00 0.00 0.00 83 1000.7
20260505114634 67 218 0.0 0.0 0.00 0.00 0.00 83 1000.7
20260505114135 67 218 0.0 0.0 0.00 0.00 0.00 83 1000.7
20260505113634 67 218 0.0 7.0 0.00 0.00 0.00 83 1000.6
20260505113134 67 218 0.0 7.0 0.00 0.00 0.00 83 1000.5
20260505112634 67 247 0.0 2.6 0.00 0.00 0.00 83 1000.5
20260505112134 67 196 0.0 2.6 0.00 0.00 0.00 82 1000.5
20260505111134 67 196 0.0 0.0 0.00 0.00 0.00 82 1000.5
20260505110634 67 196 0.0 0.0 0.00 0.00 0.00 82 1000.4
20260505110134 67 196 0.0 0.0 0.00 0.00 0.00 82 1000.3
20260505101634 67 235 0.0 0.9 0.00 0.00 0.00 81 1000.1
20260505101134 67 235 0.0 0.9 0.00 0.00 0.00 81 1000.1
20260505100634 67 245 0.0 0.0 0.00 0.00 0.00 81 1000.2
20260505100134 67 245 0.0 0.0 0.00 0.00 0.00 80 1000.2
20260505094634 67 312 0.0 0.0 0.00 0.00 0.00 82 1000.1
20260505094134 67 315 0.0 0.0 0.00 0.00 0.00 81 1000.0
20260505093634 67 349 0.0 0.0 0.00 0.00 0.00 80 1000.0
20260505093134 67 349 0.0 0.0 0.00 0.00 0.00 80 1000.0
20260505092634 67 349 0.0 0.0 0.00 0.00 0.00 80 1000.0
20260505092134 67 349 0.0 0.0 0.00 0.00 0.00 80 1000.0
20260505091134 67 349 0.0 0.0 0.00 0.00 0.00 80 1000.1
20260505090634 67 349 0.0 0.0 0.00 0.00 0.00 79 1000.1
20260505090134 68 349 0.0 0.0 0.00 0.00 0.00 79 1000.4
20260505085634 68 349 0.0 0.0 0.00 0.00 0.00 78 1000.3
20260505085134 68 349 0.0 0.0 0.00 0.00 0.00 78 1000.2
20260505083634 69 348 0.0 2.6 0.00 0.00 0.00 77 1000.2
20260505083134 69 251 0.0 2.6 0.00 0.00 0.00 77 1000.2
20260505082134 69 250 0.0 0.0 0.00 0.00 0.00 77 1000.5
20260505080634 69 226 0.0 7.8 0.00 0.00 0.00 76 1000.6
20260505080134 69 231 0.0 8.7 0.00 0.00 0.00 76 1000.7
20260505075634 70 196 0.0 8.7 0.00 0.00 0.00 76 1000.6
20260505074134 70 217 1.7 7.8 0.00 0.00 0.00 75 1000.6
20260505073634 70 180 1.7 8.7 0.00 0.00 0.00 74 1000.6
20260505073134 70 215 1.7 8.7 0.00 0.00 0.00 74 1000.6
20260505072634 70 209 2.6 10.4 0.00 0.00 0.00 74 1000.7
20260505072134 70 203 2.6 10.4 0.00 0.00 0.00 74 1000.7
20260505071634 71 241 0.9 10.4 0.00 0.00 0.00 74 1000.9
20260505071134 71 205 0.9 8.7 0.00 0.00 0.00 74 1000.9
20260505070634 71 221 2.6 8.7 0.00 0.00 0.00 73 1000.9
20260505070134 71 216 1.7 8.7 0.00 0.00 0.00 73 1001.0
20260505065634 71 213 2.6 8.7 0.00 0.00 0.00 73 1001.0
20260505065134 71 236 0.9 8.7 0.00 0.00 0.00 73 1000.9
20260505064634 71 227 1.7 7.0 0.00 0.00 0.00 72 1000.9
20260505063634 71 198 1.7 5.2 0.00 0.00 0.00 72 1001.0
20260505063134 71 205 1.7 7.8 0.00 0.00 0.00 71 1001.0
20260505062633 71 211 1.7 10.4 0.00 0.00 0.00 71 1001.2
20260505062134 72 239 1.7 10.4 0.00 0.00 0.00 70 1001.3
20260505061633 72 191 1.7 8.7 0.00 0.00 0.00 70 1001.4
20260505061134 72 208 3.5 10.4 0.00 0.00 0.00 70 1001.5
20260505060634 72 226 3.5 10.4 0.00 0.00 0.00 69 1001.6
20260505060134 72 204 2.6 10.4 0.00 0.00 0.00 69 1001.6
20260505055634 72 201 0.9 8.7 0.00 0.00 0.00 69 1001.4
20260505055134 72 216 0.9 6.1 0.00 0.00 0.00 68 1001.5
20260505054633 73 165 2.6 7.8 0.00 0.00 0.00 68 1001.5
20260505054134 73 188 0.9 7.8 0.00 0.00 0.00 68 1001.6
20260505053134 73 202 1.7 10.4 0.00 0.00 0.00 67 1001.7
20260505052634 73 159 0.9 10.4 0.00 0.00 0.00 67 1001.7
20260505052134 73 185 0.9 8.7 0.00 0.00 0.00 67 1001.8
20260505051634 73 205 2.6 8.7 0.00 0.00 0.00 66 1001.7
20260505051134 74 210 0.9 6.1 0.00 0.00 0.00 66 1001.9
20260505050634 74 213 2.6 10.4 0.00 0.00 0.00 66 1001.7
20260505050134 74 194 2.6 10.4 0.00 0.00 0.00 65 1001.4
20260505041633 75 210 2.6 7.8 0.00 0.00 0.00 62 1001.5
20260505041134 75 222 0.9 10.4 0.00 0.00 0.00 62 1001.5
20260505040633 75 203 1.7 10.4 0.00 0.00 0.00 62 1001.5
20260505035134 75 176 3.5 7.8 0.00 0.00 0.00 61 1001.5
20260505034633 75 215 2.6 7.8 0.00 0.00 0.00 60 1001.5
20260505034134 75 215 1.7 6.1 0.00 0.00 0.00 60 1001.5
20260505033633 75 175 0.9 8.7 0.00 0.00 0.00 59 1001.5
20260505033134 75 164 2.6 8.7 0.00 0.00 0.00 58 1001.4
20260505032633 76 208 0.0 1.7 0.00 0.00 0.00 58 1001.3
20260505032134 76 155 0.0 0.0 0.00 0.00 0.00 57 1001.1
20260505031133 77 153 0.9 4.3 0.00 0.00 0.00 55 1001.1
20260505030633 77 193 0.0 4.3 0.00 0.00 0.00 55 1001.1
20260505030133 77 208 0.0 4.3 0.00 0.00 0.00 54 1001.1
20260505025633 77 204 0.9 4.3 0.00 0.00 0.00 54 1001.1
20260505025134 78 202 0.9 4.3 0.00 0.00 0.00 53 1001.2
20260505024633 78 182 0.9 4.3 0.00 0.00 0.00 53 1001.1
20260505024133 78 189 0.9 7.8 0.00 0.00 0.00 52 1000.9
20260505023633 78 212 1.7 7.8 0.00 0.00 0.00 52 1000.8
20260505023133 78 184 0.0 5.2 0.00 0.00 0.00 51 1000.7
20260505022633 78 205 0.0 5.2 0.00 0.00 0.00 51 1000.4
20260505022133 79 189 0.9 4.3 0.00 0.00 0.00 50 1000.3
20260505021633 79 189 0.0 5.2 0.00 0.00 0.00 50 1000.3
20260505021133 79 181 0.9 6.1 0.00 0.00 0.00 50 1000.3
20260505020633 79 185 0.9 6.1 0.00 0.00 0.00 50 1000.3
20260505020133 79 192 0.0 4.3 0.00 0.00 0.00 50 1000.2
20260505015633 80 184 0.9 5.2 0.00 0.00 0.00 49 1000.2
20260505015133 80 184 0.9 5.2 0.00 0.00 0.00 49 1000.3
20260505014633 80 177 0.9 2.6 0.00 0.00 0.00 49 1000.2
20260505014133 81 226 0.0 0.9 0.00 0.00 0.00 48 1000.2
20260505013633 81 172 0.0 2.6 0.00 0.00 0.00 47 1000.0
20260505013133 81 136 0.0 2.6 0.00 0.00 0.00 46 1000.0
20260505012633 82 186 0.0 0.9 0.00 0.00 0.00 46 1000.0
20260505012133 82 216 0.0 4.3 0.00 0.00 0.00 45 1000.1
20260505011633 82 199 0.0 4.3 0.00 0.00 0.00 45 1000.1
20260505011133 82 177 0.0 1.7 0.00 0.00 0.00 45 1000.2
20260505010633 83 208 0.0 1.7 0.00 0.00 0.00 45 1000.2
20260505010133 83 187 0.0 2.6 0.00 0.00 0.00 44 1000.2
20260505005633 83 168 0.9 6.1 0.00 0.00 0.00 44 1000.2
20260505005133 84 169 1.7 6.1 0.00 0.00 0.00 43 1000.2
20260505004633 84 212 0.0 7.8 0.00 0.00 0.00 43 1000.4
20260505004133 84 234 2.6 7.8 0.00 0.00 0.00 43 1000.4
20260505003633 84 213 0.0 7.0 0.00 0.00 0.00 43 1000.5
20260505003133 84 201 0.9 7.0 0.00 0.00 0.00 43 1000.5
20260505002633 85 172 0.9 6.1 0.00 0.00 0.00 42 1000.4
20260505002133 85 215 0.0 5.2 0.00 0.00 0.00 42 1000.4
20260505001633 85 202 0.9 7.8 0.00 0.00 0.00 42 1000.5
20260505000633 85 205 0.9 6.1 0.00 0.00 0.00 41 1000.5
20260505000133 85 203 0.9 6.1 0.00 0.00 0.00 42 1000.5
20260504235633 86 197 0.9 10.4 0.00 0.00 0.00 40 1000.5
20260504235133 86 190 2.6 10.4 0.00 0.00 0.00 40 1000.6
20260504234633 86 201 3.5 10.4 0.00 0.00 0.00 40 1000.6
20260504234133 87 220 1.7 10.4 0.00 0.00 0.00 40 1000.6
20260504233633 87 213 0.9 10.4 0.00 0.00 0.00 39 1000.7
20260504233133 88 203 4.3 10.4 0.00 0.00 0.00 38 1000.6
20260504232633 89 217 0.0 8.7 0.00 0.00 0.00 38 1000.7
20260504232133 89 176 0.9 8.7 0.00 0.00 0.00 37 1000.8
20260504231633 90 212 1.7 8.7 0.00 0.00 0.00 37 1000.8
20260504231133 90 200 1.7 8.7 0.00 0.00 0.00 37 1000.9
20260504230633 90 205 0.9 10.4 0.00 0.00 0.00 38 1000.9
20260504230133 90 210 1.7 10.4 0.00 0.00 0.00 37 1001.0
20260504225633 90 150 0.9 10.4 0.00 0.00 0.00 38 1001.1
20260504225133 89 213 1.7 10.4 0.00 0.00 0.00 37 1001.1
20260504224633 89 214 1.7 10.4 0.00 0.00 0.00 37 1001.2
20260504224133 89 226 2.6 10.4 0.00 0.00 0.00 37 1001.3
20260504223633 89 215 5.2 10.4 0.00 0.00 0.00 36 1001.3
20260504223133 90 219 4.3 10.4 0.00 0.00 0.00 35 1001.2
20260504222633 90 206 0.9 10.4 0.00 0.00 0.00 36 1001.2
20260504222133 90 236 5.2 10.4 0.00 0.00 0.00 36 1001.1
20260504221633 90 224 1.7 10.4 0.00 0.00 0.00 38 1001.2
20260504220633 89 212 4.3 10.4 0.00 0.00 0.00 38 1001.4
20260504220133 89 200 0.9 10.4 0.00 0.00 0.00 38 1001.4
20260504215632 89 214 5.2 10.4 0.00 0.00 0.00 38 1001.3
20260504215133 89 188 3.5 10.4 0.00 0.00 0.00 38 1001.3
20260504214632 89 201 2.6 10.4 0.00 0.00 0.00 38 1001.3
20260504214133 89 160 4.3 10.4 0.00 0.00 0.00 38 1001.4
20260504213633 90 215 0.0 10.4 0.00 0.00 0.00 37 1001.5
20260504212632 90 224 0.9 10.4 0.00 0.00 0.00 36 1001.8
20260504212133 90 223 0.9 10.4 0.00 0.00 0.00 38 1001.9
20260504211632 89 188 1.7 11.3 0.00 0.00 0.00 38 1002.1
20260504211133 89 236 7.0 11.3 0.00 0.00 0.00 38 1002.1
20260504210633 89 194 0.9 8.7 0.00 0.00 0.00 41 1002.1
20260504210133 89 217 0.0 8.7 0.00 0.00 0.00 38 1002.3
20260504205632 88 198 0.0 11.3 0.00 0.00 0.00 41 1002.4
20260504204632 89 229 4.3 11.3 0.00 0.00 0.00 39 1002.7
20260504204133 89 199 0.0 7.8 0.00 0.00 0.00 42 1002.8
20260504203633 89 208 1.7 8.7 0.00 0.00 0.00 41 1003.1
20260504203133 88 224 2.6 10.4 0.00 0.00 0.00 42 1003.2
20260504202632 88 231 2.6 10.4 0.00 0.00 0.00 42 1003.3
20260504202133 88 235 6.1 10.4 0.00 0.00 0.00 42 1003.3
20260504201632 87 213 2.6 10.4 0.00 0.00 0.00 43 1003.4
20260504201133 87 236 4.3 8.7 0.00 0.00 0.00 42 1003.5
20260504200632 87 168 0.9 13.0 0.00 0.00 0.00 42 1003.5
20260504200132 87 215 2.6 13.0 0.00 0.00 0.00 43 1003.5
20260504195633 87 229 4.3 8.7 0.00 0.00 0.00 43 1003.5
20260504195133 87 242 0.0 6.1 0.00 0.00 0.00 44 1003.7
20260504194632 87 223 1.7 12.2 0.00 0.00 0.00 43 1003.8
20260504194133 86 185 0.0 12.2 0.00 0.00 0.00 45 1003.8
20260504193633 86 181 0.9 5.2 0.00 0.00 0.00 44 1004.0
20260504192133 85 177 0.9 2.6 0.00 0.00 0.00 46 1004.2
20260504191632 85 219 0.0 4.3 0.00 0.00 0.00 45 1004.2
20260504191133 85 196 0.0 4.3 0.00 0.00 0.00 46 1004.3
20260504190132 84 222 0.0 0.9 0.00 0.00 0.00 47 1004.5
20260504185632 84 221 0.0 6.1 0.00 0.00 0.00 47 1004.5
20260504185132 84 214 0.0 6.1 0.00 0.00 0.00 48 1004.8